Terminal Aerodrome Forecast
Issued by NWS

Home | Current Version | Previous Version | Text Only | Print | Product List | Glossary On
Versions: 1 2 3 4 5 6 7 8 9 10 11 12 13 14 15 16
000
FTPA31 PHFO 271139
TAFHKO
TAF
PHKO 271139Z 2712/2812 13006KT P6SM VCSH SCT025 BKN045
      TEMPO 2712/2713 -SHRA BKN025
     FM272000 23010KT P6SM SCT060
     FM280500 16006KT P6SM VCSH SCT025 BKN045=

USA.gov is the U.S. government's official web portal to all federal, state and local government web resources and services.